sensor_id;sensor_type;location;lat;lon;timestamp;pressure;altitude;pressure_sealevel;temperature;humidity
21433;BME280;18592;49.708;10.900;2023-02-18T00:01:10;99271.38;;;14.58;58.57
21433;BME280;18592;49.708;10.900;2023-02-18T00:03:12;99269.47;;;14.59;58.62
21433;BME280;18592;49.708;10.900;2023-02-18T00:05:14;99280.44;;;14.59;58.51
21433;BME280;18592;49.708;10.900;2023-02-18T00:07:16;99271.38;;;14.58;59.00
21433;BME280;18592;49.708;10.900;2023-02-18T00:09:18;99275.81;;;14.59;58.51
21433;BME280;18592;49.708;10.900;2023-02-18T00:11:20;99273.28;;;14.58;58.58
21433;BME280;18592;49.708;10.900;2023-02-18T00:13:24;99277.16;;;14.57;58.58
21433;BME280;18592;49.708;10.900;2023-02-18T00:15:26;99279.28;;;14.55;58.75
21433;BME280;18592;49.708;10.900;2023-02-18T00:17:28;99273.81;;;14.55;58.81
21433;BME280;18592;49.708;10.900;2023-02-18T00:19:30;99277.38;;;14.55;58.78
21433;BME280;18592;49.708;10.900;2023-02-18T00:21:33;99273.00;;;14.54;59.03
21433;BME280;18592;49.708;10.900;2023-02-18T00:23:35;99276.81;;;14.53;58.97
21433;BME280;18592;49.708;10.900;2023-02-18T00:25:37;99276.00;;;14.53;59.27
21433;BME280;18592;49.708;10.900;2023-02-18T00:27:38;99269.66;;;14.52;58.83
21433;BME280;18592;49.708;10.900;2023-02-18T00:29:40;99275.44;;;14.51;58.84
21433;BME280;18592;49.708;10.900;2023-02-18T00:31:42;99278.16;;;14.51;58.94
21433;BME280;18592;49.708;10.900;2023-02-18T00:33:44;99268.88;;;14.52;58.99
21433;BME280;18592;49.708;10.900;2023-02-18T00:35:46;99266.94;;;14.52;58.78
21433;BME280;18592;49.708;10.900;2023-02-18T00:37:51;99271.84;;;14.50;58.86
21433;BME280;18592;49.708;10.900;2023-02-18T00:39:53;99275.69;;;14.49;59.08
21433;BME280;18592;49.708;10.900;2023-02-18T00:41:55;99273.75;;;14.50;59.14
21433;BME280;18592;49.708;10.900;2023-02-18T00:43:57;99272.69;;;14.51;58.87
21433;BME280;18592;49.708;10.900;2023-02-18T00:45:59;99271.84;;;14.50;59.01
21433;BME280;18592;49.708;10.900;2023-02-18T00:48:04;99272.13;;;14.49;58.92
21433;BME280;18592;49.708;10.900;2023-02-18T00:50:07;99275.69;;;14.49;59.18
21433;BME280;18592;49.708;10.900;2023-02-18T00:52:09;99263.31;;;14.47;59.06
21433;BME280;18592;49.708;10.900;2023-02-18T00:54:10;99263.06;;;14.48;59.05
21433;BME280;18592;49.708;10.900;2023-02-18T00:56:13;99263.06;;;14.48;59.00
21433;BME280;18592;49.708;10.900;2023-02-18T00:58:16;99265.81;;;14.48;58.69
21433;BME280;18592;49.708;10.900;2023-02-18T01:00:18;99265.22;;;14.46;58.87
21433;BME280;18592;49.708;10.900;2023-02-18T01:02:19;99264.97;;;14.48;58.63
21433;BME280;18592;49.708;10.900;2023-02-18T01:04:21;99270.72;;;14.46;58.92
21433;BME280;18592;49.708;10.900;2023-02-18T01:06:23;99267.97;;;14.46;58.92
21433;BME280;18592;49.708;10.900;2023-02-18T01:08:28;99267.97;;;14.46;59.04
21433;BME280;18592;49.708;10.900;2023-02-18T01:10:30;99269.06;;;14.45;58.95
21433;BME280;18592;49.708;10.900;2023-02-18T01:12:31;99269.06;;;14.45;58.92
21433;BME280;18592;49.708;10.900;2023-02-18T01:14:33;99270.16;;;14.44;58.79
21433;BME280;18592;49.708;10.900;2023-02-18T01:16:34;99270.97;;;14.45;58.89
21433;BME280;18592;49.708;10.900;2023-02-18T01:18:36;99270.16;;;14.44;58.81
21433;BME280;18592;49.708;10.900;2023-02-18T01:20:40;99280.53;;;14.42;58.92
21433;BME280;18592;49.708;10.900;2023-02-18T01:22:44;99270.41;;;14.43;59.10
21433;BME280;18592;49.708;10.900;2023-02-18T01:24:49;99269.84;;;14.41;59.01
21433;BME280;18592;49.708;10.900;2023-02-18T01:26:50;99260.78;;;14.40;59.04
21433;BME280;18592;49.708;10.900;2023-02-18T01:28:52;99258.31;;;14.39;58.88
21433;BME280;18592;49.708;10.900;2023-02-18T01:30:54;99259.13;;;14.39;58.82
21433;BME280;18592;49.708;10.900;2023-02-18T01:32:56;99259.66;;;14.36;59.22
21433;BME280;18592;49.708;10.900;2023-02-18T01:35:04;99257.72;;;14.37;59.06
21433;BME280;18592;49.708;10.900;2023-02-18T01:37:07;99260.72;;;14.35;59.37
21433;BME280;18592;49.708;10.900;2023-02-18T01:39:09;99265.63;;;14.33;59.16
21433;BME280;18592;49.708;10.900;2023-02-18T01:41:11;99252.75;;;14.34;59.12
21433;BME280;18592;49.708;10.900;2023-02-18T01:43:14;99253.84;;;14.33;59.35
21433;BME280;18592;49.708;10.900;2023-02-18T01:47:38;99258.75;;;14.31;59.12
21433;BME280;18592;49.708;10.900;2023-02-18T01:49:42;99257.06;;;14.30;59.34
21433;BME280;18592;49.708;10.900;2023-02-18T01:51:48;99255.16;;;14.30;59.36
21433;BME280;18592;49.708;10.900;2023-02-18T01:54:01;99262.81;;;14.28;59.29
21433;BME280;18592;49.708;10.900;2023-02-18T01:56:06;99249.66;;;14.30;59.14
21433;BME280;18592;49.708;10.900;2023-02-18T01:58:10;99245.53;;;14.28;59.42
21433;BME280;18592;49.708;10.900;2023-02-18T02:00:16;99249.94;;;14.29;59.40
21433;BME280;18592;49.708;10.900;2023-02-18T02:02:23;99247.44;;;14.27;59.33
21433;BME280;18592;49.708;10.900;2023-02-18T02:04:25;99242.78;;;14.28;59.45
21433;BME280;18592;49.708;10.900;2023-02-18T02:06:26;99245.53;;;14.28;59.40
21433;BME280;18592;49.708;10.900;2023-02-18T02:08:28;99235.66;;;14.27;59.45
21433;BME280;18592;49.708;10.900;2023-02-18T02:10:44;99237.81;;;14.25;59.30
21433;BME280;18592;49.708;10.900;2023-02-18T02:15:30;99243.56;;;14.23;59.59
21433;BME280;18592;49.708;10.900;2023-02-18T02:22:58;99238.59;;;14.20;59.40
21433;BME280;18592;49.708;10.900;2023-02-18T02:25:33;99231.47;;;14.19;59.53
21433;BME280;18592;49.708;10.900;2023-02-18T02:28:16;99225.16;;;14.19;59.75
21433;BME280;18592;49.708;10.900;2023-02-18T02:30:52;99234.44;;;14.18;59.63
21433;BME280;18592;49.708;10.900;2023-02-18T02:33:18;99233.88;;;14.16;59.68
21433;BME280;18592;49.708;10.900;2023-02-18T02:35:32;99224.56;;;14.17;59.55
21433;BME280;18592;49.708;10.900;2023-02-18T02:37:57;99220.16;;;14.16;59.79
21433;BME280;18592;49.708;10.900;2023-02-18T02:40:23;99219.34;;;14.15;59.63
21433;BME280;18592;49.708;10.900;2023-02-18T02:42:46;99212.19;;;14.14;59.76
21433;BME280;18592;49.708;10.900;2023-02-18T02:44:59;99214.94;;;14.14;59.69
21433;BME280;18592;49.708;10.900;2023-02-18T02:47:25;99208.88;;;14.12;59.57
21433;BME280;18592;49.708;10.900;2023-02-18T02:50:25;99215.19;;;14.13;60.09
21433;BME280;18592;49.708;10.900;2023-02-18T02:52:21;99211.06;;;14.10;59.78
21433;BME280;18592;49.708;10.900;2023-02-18T02:54:26;99212.44;;;14.13;59.79
21433;BME280;18592;49.708;10.900;2023-02-18T02:56:30;99211.06;;;14.10;59.82
21433;BME280;18592;49.708;10.900;2023-02-18T02:58:31;99209.16;;;14.11;59.75
21433;BME280;18592;49.708;10.900;2023-02-18T03:06:10;99197.63;;;14.09;59.88
21433;BME280;18592;49.708;10.900;2023-02-18T03:08:29;99192.38;;;14.07;59.93
21433;BME280;18592;49.708;10.900;2023-02-18T03:13:28;99203.34;;;14.07;60.13
21433;BME280;18592;49.708;10.900;2023-02-18T03:15:22;99212.66;;;14.06;60.00
21433;BME280;18592;49.708;10.900;2023-02-18T03:17:28;99209.94;;;14.06;59.96
21433;BME280;18592;49.708;10.900;2023-02-18T03:19:38;99213.47;;;14.07;60.14
21433;BME280;18592;49.708;10.900;2023-02-18T03:21:44;99213.47;;;14.07;60.35
21433;BME280;18592;49.708;10.900;2023-02-18T03:23:54;99207.75;;;14.08;60.00
21433;BME280;18592;49.708;10.900;2023-02-18T03:25:58;99214.31;;;14.07;59.87
21433;BME280;18592;49.708;10.900;2023-02-18T03:28:16;99209.94;;;14.06;59.89
21433;BME280;18592;49.708;10.900;2023-02-18T03:30:29;99212.66;;;14.06;59.92
21433;BME280;18592;49.708;10.900;2023-02-18T03:32:58;99213.75;;;14.05;59.99
21433;BME280;18592;49.708;10.900;2023-02-18T03:35:10;99219.22;;;14.05;59.92
21433;BME280;18592;49.708;10.900;2023-02-18T03:37:14;99220.06;;;14.06;59.85
21433;BME280;18592;49.708;10.900;2023-02-18T03:39:18;99218.38;;;14.05;60.25
21433;BME280;18592;49.708;10.900;2023-02-18T03:41:23;99220.06;;;14.06;59.82
21433;BME280;18592;49.708;10.900;2023-02-18T03:43:25;99225.53;;;14.06;59.86
21433;BME280;18592;49.708;10.900;2023-02-18T03:45:27;99229.91;;;14.07;59.90
21433;BME280;18592;49.708;10.900;2023-02-18T03:47:29;99234.34;;;14.08;59.98
21433;BME280;18592;49.708;10.900;2023-02-18T03:49:31;99226.09;;;14.08;59.97
21433;BME280;18592;49.708;10.900;2023-02-18T03:51:33;99221.69;;;14.07;59.94
21433;BME280;18592;49.708;10.900;2023-02-18T03:53:35;99222.53;;;14.07;59.96
21433;BME280;18592;49.708;10.900;2023-02-18T03:55:36;99217.03;;;14.07;59.78
21433;BME280;18592;49.708;10.900;2023-02-18T03:57:38;99215.97;;;14.08;59.92
21433;BME280;18592;49.708;10.900;2023-02-18T03:59:40;99212.66;;;14.06;60.25
21433;BME280;18592;49.708;10.900;2023-02-18T04:01:41;99222.81;;;14.06;59.80
21433;BME280;18592;49.708;10.900;2023-02-18T04:03:43;99210.16;;;14.05;60.03
21433;BME280;18592;49.708;10.900;2023-02-18T04:05:45;99219.22;;;14.05;60.64
21433;BME280;18592;49.708;10.900;2023-02-18T04:07:49;99215.66;;;14.05;60.14
21433;BME280;18592;49.708;10.900;2023-02-18T04:09:50;99220.06;;;14.06;60.02
21433;BME280;18592;49.708;10.900;2023-02-18T04:11:53;99217.56;;;14.04;60.27
21433;BME280;18592;49.708;10.900;2023-02-18T04:13:55;99221.13;;;14.05;60.16
21433;BME280;18592;49.708;10.900;2023-02-18T04:15:57;99219.50;;;14.04;59.98
21433;BME280;18592;49.708;10.900;2023-02-18T04:17:58;99225.78;;;14.04;60.41
21433;BME280;18592;49.708;10.900;2023-02-18T04:20:00;99219.50;;;14.04;60.17
21433;BME280;18592;49.708;10.900;2023-02-18T04:22:01;99226.88;;;14.03;60.38
21433;BME280;18592;49.708;10.900;2023-02-18T04:24:07;99226.31;;;14.01;60.30
21433;BME280;18592;49.708;10.900;2023-02-18T04:26:09;99230.69;;;14.02;60.10
21433;BME280;18592;49.708;10.900;2023-02-18T04:28:14;99225.22;;;14.02;60.08
21433;BME280;18592;49.708;10.900;2023-02-18T04:30:17;99232.38;;;14.03;60.17
21433;BME280;18592;49.708;10.900;2023-02-18T04:32:19;99237.00;;;14.02;60.44
21433;BME280;18592;49.708;10.900;2023-02-18T04:34:21;99236.19;;;14.02;60.36
21433;BME280;18592;49.708;10.900;2023-02-18T04:36:22;99230.69;;;14.02;60.17
21433;BME280;18592;49.708;10.900;2023-02-18T04:38:24;99235.09;;;14.03;60.21
21433;BME280;18592;49.708;10.900;2023-02-18T04:40:26;99222.47;;;14.02;60.10
21433;BME280;18592;49.708;10.900;2023-02-18T04:42:30;99228.78;;;14.02;60.02
21433;BME280;18592;49.708;10.900;2023-02-18T04:44:32;99225.47;;;14.00;60.11
21433;BME280;18592;49.708;10.900;2023-02-18T04:46:34;99229.88;;;14.01;60.14
21433;BME280;18592;49.708;10.900;2023-02-18T04:48:36;99230.69;;;14.02;60.16
21433;BME280;18592;49.708;10.900;2023-02-18T04:50:39;99226.31;;;14.01;60.14
21433;BME280;18592;49.708;10.900;2023-02-18T04:52:43;99229.88;;;14.01;60.29
21433;BME280;18592;49.708;10.900;2023-02-18T04:54:45;99230.69;;;14.02;60.22
21433;BME280;18592;49.708;10.900;2023-02-18T04:56:47;99229.06;;;14.01;59.91
21433;BME280;18592;49.708;10.900;2023-02-18T04:58:49;99232.88;;;14.00;60.12
21433;BME280;18592;49.708;10.900;2023-02-18T05:00:53;99229.06;;;14.01;60.09
21433;BME280;18592;49.708;10.900;2023-02-18T05:02:54;99233.72;;;14.00;60.26
21433;BME280;18592;49.708;10.900;2023-02-18T05:04:56;99227.38;;;14.00;60.16
21433;BME280;18592;49.708;10.900;2023-02-18T05:06:57;99233.94;;;13.99;60.09
21433;BME280;18592;49.708;10.900;2023-02-18T05:08:59;99223.81;;;13.99;60.19
21433;BME280;18592;49.708;10.900;2023-02-18T05:11:05;99218.59;;;13.98;60.08
21433;BME280;18592;49.708;10.900;2023-02-18T05:13:06;99228.22;;;14.00;59.98
21433;BME280;18592;49.708;10.900;2023-02-18T05:15:09;99216.44;;;14.00;60.17
21433;BME280;18592;49.708;10.900;2023-02-18T05:17:10;99219.16;;;14.00;60.29
21433;BME280;18592;49.708;10.900;2023-02-18T05:19:15;99221.06;;;13.99;60.12
21433;BME280;18592;49.708;10.900;2023-02-18T05:21:17;99218.34;;;13.99;60.13
21433;BME280;18592;49.708;10.900;2023-02-18T05:23:19;99212.63;;;14.01;60.04
21433;BME280;18592;49.708;10.900;2023-02-18T05:25:22;99213.94;;;13.98;60.21
21433;BME280;18592;49.708;10.900;2023-02-18T05:27:24;99206.81;;;13.97;60.19
21433;BME280;18592;49.708;10.900;2023-02-18T05:29:26;99204.63;;;13.99;60.06
21433;BME280;18592;49.708;10.900;2023-02-18T05:31:27;99214.75;;;13.99;60.54
21433;BME280;18592;49.708;10.900;2023-02-18T05:33:29;99211.44;;;13.97;60.29
21433;BME280;18592;49.708;10.900;2023-02-18T05:35:30;99211.44;;;13.97;60.53
21433;BME280;18592;49.708;10.900;2023-02-18T05:37:32;99200.50;;;13.97;60.42
21433;BME280;18592;49.708;10.900;2023-02-18T05:39:34;99201.59;;;13.96;60.07
21433;BME280;18592;49.708;10.900;2023-02-18T05:41:35;99201.59;;;13.96;60.27
21433;BME280;18592;49.708;10.900;2023-02-18T05:43:37;99195.00;;;13.97;60.23
21433;BME280;18592;49.708;10.900;2023-02-18T05:45:57;99199.94;;;13.95;60.22
21433;BME280;18592;49.708;10.900;2023-02-18T05:47:59;99205.41;;;13.95;60.36
21433;BME280;18592;49.708;10.900;2023-02-18T05:50:01;99199.09;;;13.94;60.52
21433;BME280;18592;49.708;10.900;2023-02-18T05:52:03;99201.59;;;13.96;60.52
21433;BME280;18592;49.708;10.900;2023-02-18T05:54:05;99194.44;;;13.95;60.23
21433;BME280;18592;49.708;10.900;2023-02-18T05:56:07;99193.88;;;13.93;60.58
21433;BME280;18592;49.708;10.900;2023-02-18T05:58:09;99192.22;;;13.92;60.48
21433;BME280;18592;49.708;10.900;2023-02-18T06:00:11;99191.13;;;13.93;60.28
21433;BME280;18592;49.708;10.900;2023-02-18T06:02:22;99187.28;;;13.94;60.28
21433;BME280;18592;49.708;10.900;2023-02-18T06:04:27;99193.88;;;13.93;60.32
21433;BME280;18592;49.708;10.900;2023-02-18T06:06:28;99186.72;;;13.92;60.28
21433;BME280;18592;49.708;10.900;2023-02-18T06:08:30;99188.41;;;13.93;60.33
21433;BME280;18592;49.708;10.900;2023-02-18T06:10:31;99177.44;;;13.93;60.25
21433;BME280;18592;49.708;10.900;2023-02-18T06:12:33;99180.41;;;13.91;60.45
21433;BME280;18592;49.708;10.900;2023-02-18T06:14:35;99178.28;;;13.93;60.27
21433;BME280;18592;49.708;10.900;2023-02-18T06:16:36;99170.56;;;13.90;60.38
21433;BME280;18592;49.708;10.900;2023-02-18T06:18:38;99173.28;;;13.90;60.47
21433;BME280;18592;49.708;10.900;2023-02-18T06:20:43;99164.25;;;13.90;60.34
21433;BME280;18592;49.708;10.900;2023-02-18T06:22:45;99165.06;;;13.90;60.24
21433;BME280;18592;49.708;10.900;2023-02-18T06:24:46;99164.50;;;13.88;60.34
21433;BME280;18592;49.708;10.900;2023-02-18T06:26:48;99166.97;;;13.90;60.39
21433;BME280;18592;49.708;10.900;2023-02-18T06:28:50;99173.53;;;13.89;60.47
21433;BME280;18592;49.708;10.900;2023-02-18T06:30:55;99172.72;;;13.88;60.60
21433;BME280;18592;49.708;10.900;2023-02-18T06:32:57;99176.81;;;13.86;60.49
21433;BME280;18592;49.708;10.900;2023-02-18T06:34:59;99166.66;;;13.86;60.63
21433;BME280;18592;49.708;10.900;2023-02-18T06:37:00;99164.19;;;13.85;60.60
21433;BME280;18592;49.708;10.900;2023-02-18T06:39:04;99172.41;;;13.85;60.51
21433;BME280;18592;49.708;10.900;2023-02-18T06:41:06;99163.66;;;13.88;60.26
21433;BME280;18592;49.708;10.900;2023-02-18T06:43:08;99162.00;;;13.87;60.56
21433;BME280;18592;49.708;10.900;2023-02-18T06:45:10;99160.38;;;13.86;60.48
21433;BME280;18592;49.708;10.900;2023-02-18T06:47:12;99164.19;;;13.85;60.68
21433;BME280;18592;49.708;10.900;2023-02-18T06:49:13;99171.31;;;13.86;60.73
21433;BME280;18592;49.708;10.900;2023-02-18T06:51:15;99168.00;;;13.84;60.75
21433;BME280;18592;49.708;10.900;2023-02-18T06:53:17;99161.72;;;13.83;60.68
21433;BME280;18592;49.708;10.900;2023-02-18T06:55:19;99160.88;;;13.83;60.94
21433;BME280;18592;49.708;10.900;2023-02-18T06:57:20;99160.88;;;13.83;60.83
21433;BME280;18592;49.708;10.900;2023-02-18T06:59:22;99164.69;;;13.82;60.85
21433;BME280;18592;49.708;10.900;2023-02-18T07:01:23;99157.31;;;13.82;60.77
21433;BME280;18592;49.708;10.900;2023-02-18T07:03:25;99164.69;;;13.82;60.80
21433;BME280;18592;49.708;10.900;2023-02-18T07:05:27;99157.56;;;13.81;60.98
21433;BME280;18592;49.708;10.900;2023-02-18T07:07:29;99151.25;;;13.80;61.20
21433;BME280;18592;49.708;10.900;2023-02-18T07:09:31;99148.25;;;13.82;61.04
21433;BME280;18592;49.708;10.900;2023-02-18T07:11:32;99156.47;;;13.82;61.02
21433;BME280;18592;49.708;10.900;2023-02-18T07:13:34;99154.84;;;13.81;61.14
21433;BME280;18592;49.708;10.900;2023-02-18T07:15:36;99161.13;;;13.81;60.97
21433;BME280;18592;49.708;10.900;2023-02-18T07:17:38;99164.69;;;13.82;61.27
21433;BME280;18592;49.708;10.900;2023-02-18T07:19:39;99160.03;;;13.82;60.93
21433;BME280;18592;49.708;10.900;2023-02-18T07:21:41;99160.88;;;13.83;61.09
21433;BME280;18592;49.708;10.900;2023-02-18T07:23:43;99157.31;;;13.82;60.93
21433;BME280;18592;49.708;10.900;2023-02-18T07:25:45;99157.88;;;13.84;60.98
21433;BME280;18592;49.708;10.900;2023-02-18T07:27:46;99160.38;;;13.86;61.02
21433;BME280;18592;49.708;10.900;2023-02-18T07:29:48;99157.88;;;13.84;61.15
21433;BME280;18592;49.708;10.900;2023-02-18T07:31:50;99155.97;;;13.85;61.17
21433;BME280;18592;49.708;10.900;2023-02-18T07:33:52;99153.22;;;13.85;61.10
21433;BME280;18592;49.708;10.900;2023-02-18T07:35:58;99149.97;;;13.88;61.03
21433;BME280;18592;49.708;10.900;2023-02-18T07:38:03;99141.19;;;13.86;61.15
21433;BME280;18592;49.708;10.900;2023-02-18T07:40:05;99149.41;;;13.86;61.25
21433;BME280;18592;49.708;10.900;2023-02-18T07:42:10;99142.59;;;13.88;61.17
21433;BME280;18592;49.708;10.900;2023-02-18T07:44:13;99145.06;;;13.90;61.01
21433;BME280;18592;49.708;10.900;2023-02-18T07:46:17;99148.06;;;13.88;61.23
21433;BME280;18592;49.708;10.900;2023-02-18T07:48:19;99143.16;;;13.90;61.16
21433;BME280;18592;49.708;10.900;2023-02-18T07:50:22;99148.34;;;13.92;61.20
21433;BME280;18592;49.708;10.900;2023-02-18T07:52:23;99144.53;;;13.93;61.15
21433;BME280;18592;49.708;10.900;2023-02-18T07:54:25;99138.22;;;13.92;61.09
21433;BME280;18592;49.708;10.900;2023-02-18T07:56:27;99133.56;;;13.93;61.07
21433;BME280;18592;49.708;10.900;2023-02-18T07:58:32;99133.56;;;13.93;61.10
21433;BME280;18592;49.708;10.900;2023-02-18T08:00:33;99134.13;;;13.95;61.00
21433;BME280;18592;49.708;10.900;2023-02-18T08:02:38;99133.31;;;13.94;61.33
21433;BME280;18592;49.708;10.900;2023-02-18T08:04:40;99133.06;;;13.96;61.30
21433;BME280;18592;49.708;10.900;2023-02-18T08:06:44;99127.59;;;13.96;61.36
21433;BME280;18592;49.708;10.900;2023-02-18T08:08:47;99127.59;;;13.96;61.34
21433;BME280;18592;49.708;10.900;2023-02-18T08:10:56;99119.09;;;13.97;61.40
21433;BME280;18592;49.708;10.900;2023-02-18T08:13:01;99117.75;;;14.00;61.38
21433;BME280;18592;49.708;10.900;2023-02-18T08:15:03;99115.56;;;14.02;61.17
21433;BME280;18592;49.708;10.900;2023-02-18T08:17:05;99118.88;;;14.04;61.34
21433;BME280;18592;49.708;10.900;2023-02-18T08:19:08;99116.72;;;14.06;61.44
21433;BME280;18592;49.708;10.900;2023-02-18T08:21:09;99110.97;;;14.08;61.66
21433;BME280;18592;49.708;10.900;2023-02-18T08:23:12;99103.06;;;14.11;61.61
21433;BME280;18592;49.708;10.900;2023-02-18T08:25:14;99110.50;;;14.16;61.66
21433;BME280;18592;49.708;10.900;2023-02-18T08:27:30;99094.66;;;14.23;61.81
21433;BME280;18592;49.708;10.900;2023-02-18T08:29:34;99102.09;;;14.27;62.07
21433;BME280;18592;49.708;10.900;2023-02-18T08:31:39;99110.16;;;14.34;62.07
21433;BME280;18592;49.708;10.900;2023-02-18T08:33:44;99100.56;;;14.36;62.02
21433;BME280;18592;49.708;10.900;2023-02-18T08:35:47;99103.34;;;14.41;62.11
21433;BME280;18592;49.708;10.900;2023-02-18T08:37:49;99100.88;;;14.45;61.83
21433;BME280;18592;49.708;10.900;2023-02-18T08:39:54;99105.06;;;14.52;62.13
21433;BME280;18592;49.708;10.900;2023-02-18T08:41:56;99096.06;;;14.57;62.02
21433;BME280;18592;49.708;10.900;2023-02-18T08:43:57;99099.63;;;14.62;62.00
21433;BME280;18592;49.708;10.900;2023-02-18T08:46:00;99092.56;;;14.67;61.94
21433;BME280;18592;49.708;10.900;2023-02-18T08:48:05;99084.34;;;14.72;61.85
21433;BME280;18592;49.708;10.900;2023-02-18T08:50:20;99078.91;;;14.77;61.80
21433;BME280;18592;49.708;10.900;2023-02-18T08:52:32;99081.66;;;14.82;62.02
21433;BME280;18592;49.708;10.900;2023-02-18T08:54:34;99073.19;;;14.88;61.80
21433;BME280;18592;49.708;10.900;2023-02-18T08:56:35;99074.06;;;14.94;61.98
21433;BME280;18592;49.708;10.900;2023-02-18T08:58:37;99074.63;;;15.01;61.81
21433;BME280;18592;49.708;10.900;2023-02-18T09:00:41;99068.91;;;15.07;61.64
21433;BME280;18592;49.708;10.900;2023-02-18T09:02:42;99068.94;;;15.12;61.81
21433;BME280;18592;49.708;10.900;2023-02-18T09:04:45;99058.78;;;15.18;61.87
21433;BME280;18592;49.708;10.900;2023-02-18T09:06:47;99057.72;;;15.24;61.72
21433;BME280;18592;49.708;10.900;2023-02-18T09:08:50;99051.94;;;15.31;61.63
21433;BME280;18592;49.708;10.900;2023-02-18T09:10:56;99067.66;;;15.35;61.50
21433;BME280;18592;49.708;10.900;2023-02-18T09:12:58;99064.34;;;15.38;61.46
21433;BME280;18592;49.708;10.900;2023-02-18T09:15:00;99071.81;;;15.43;61.42
21433;BME280;18592;49.708;10.900;2023-02-18T09:17:03;99060.28;;;15.46;61.16
21433;BME280;18592;49.708;10.900;2023-02-18T09:19:05;99070.72;;;15.49;61.02
21433;BME280;18592;49.708;10.900;2023-02-18T09:21:08;99071.03;;;15.52;60.98
21433;BME280;18592;49.708;10.900;2023-02-18T09:23:10;99068.81;;;15.54;60.98
21433;BME280;18592;49.708;10.900;2023-02-18T09:25:12;99068.28;;;15.57;60.84
21433;BME280;18592;49.708;10.900;2023-02-18T09:27:13;99073.25;;;15.60;61.01
21433;BME280;18592;49.708;10.900;2023-02-18T09:29:16;99069.13;;;15.63;60.99
21433;BME280;18592;49.708;10.900;2023-02-18T09:31:22;99071.34;;;15.66;60.91
21433;BME280;18592;49.708;10.900;2023-02-18T09:33:25;99072.44;;;15.70;60.75
21433;BME280;18592;49.708;10.900;2023-02-18T09:35:27;99070.53;;;15.70;60.76
21433;BME280;18592;49.708;10.900;2023-02-18T09:37:31;99069.41;;;15.71;60.68
21433;BME280;18592;49.708;10.900;2023-02-18T09:39:33;99071.06;;;15.72;60.71
21433;BME280;18592;49.708;10.900;2023-02-18T09:41:45;99074.38;;;15.74;60.45
21433;BME280;18592;49.708;10.900;2023-02-18T09:43:50;99063.94;;;15.76;60.43
21433;BME280;18592;49.708;10.900;2023-02-18T09:45:57;99062.84;;;15.77;60.36
21433;BME280;18592;49.708;10.900;2023-02-18T09:48:01;99061.75;;;15.78;60.47
21433;BME280;18592;49.708;10.900;2023-02-18T09:50:19;99057.88;;;15.79;59.93
21433;BME280;18592;49.708;10.900;2023-02-18T09:52:27;99051.31;;;15.80;60.10
21433;BME280;18592;49.708;10.900;2023-02-18T09:54:30;99043.88;;;15.81;60.08
21433;BME280;18592;49.708;10.900;2023-02-18T09:56:34;99040.84;;;15.77;60.08
21433;BME280;18592;49.708;10.900;2023-02-18T09:58:42;99042.22;;;15.80;60.19
21433;BME280;18592;49.708;10.900;2023-02-18T10:01:19;99048.00;;;15.78;59.78
21433;BME280;18592;49.708;10.900;2023-02-18T10:03:24;99048.00;;;15.78;60.01
21433;BME280;18592;49.708;10.900;2023-02-18T10:05:29;99044.16;;;15.79;59.90
21433;BME280;18592;49.708;10.900;2023-02-18T10:07:33;99037.00;;;15.78;59.81
21433;BME280;18592;49.708;10.900;2023-02-18T10:09:37;99043.88;;;15.81;60.08
21433;BME280;18592;49.708;10.900;2023-02-18T10:11:46;99037.56;;;15.80;59.96
21433;BME280;18592;49.708;10.900;2023-02-18T10:13:49;99043.59;;;15.82;60.16
21433;BME280;18592;49.708;10.900;2023-02-18T10:15:53;99031.53;;;15.83;60.04
21433;BME280;18592;49.708;10.900;2023-02-18T10:17:56;99025.75;;;15.85;60.06
21433;BME280;18592;49.708;10.900;2023-02-18T10:19:59;99018.31;;;15.85;59.95
21433;BME280;18592;49.708;10.900;2023-02-18T10:22:11;99016.13;;;15.87;59.96
21433;BME280;18592;49.708;10.900;2023-02-18T10:24:36;99020.25;;;15.85;59.76
21433;BME280;18592;49.708;10.900;2023-02-18T10:26:38;99018.03;;;15.87;59.85
21433;BME280;18592;49.708;10.900;2023-02-18T10:28:40;99016.94;;;15.88;59.85
21433;BME280;18592;49.708;10.900;2023-02-18T10:30:49;99013.38;;;15.87;59.86
21433;BME280;18592;49.708;10.900;2023-02-18T10:35:39;99015.03;;;15.88;59.64
21433;BME280;18592;49.708;10.900;2023-02-18T10:42:22;99001.53;;;15.87;59.50
21433;BME280;18592;49.708;10.900;2023-02-18T10:46:53;99009.53;;;15.88;59.56
21433;BME280;18592;49.708;10.900;2023-02-18T10:51:23;99008.16;;;15.91;59.51
21433;BME280;18592;49.708;10.900;2023-02-18T10:53:33;99003.19;;;15.93;59.64
21433;BME280;18592;49.708;10.900;2023-02-18T10:55:42;99002.91;;;15.95;59.38
21433;BME280;18592;49.708;10.900;2023-02-18T10:57:49;98997.16;;;15.96;59.58
21433;BME280;18592;49.708;10.900;2023-02-18T11:02:17;98990.81;;;16.01;59.25
21433;BME280;18592;49.708;10.900;2023-02-18T11:04:20;98981.47;;;16.02;59.36
21433;BME280;18592;49.708;10.900;2023-02-18T11:06:37;98983.13;;;16.03;59.22
21433;BME280;18592;49.708;10.900;2023-02-18T11:08:43;98975.41;;;16.05;59.24
21433;BME280;18592;49.708;10.900;2023-02-18T11:10:47;98988.06;;;16.06;59.28
21433;BME280;18592;49.708;10.900;2023-02-18T11:12:59;98983.66;;;16.05;58.81
21433;BME280;18592;49.708;10.900;2023-02-18T11:15:23;98972.13;;;16.03;58.76
21433;BME280;18592;49.708;10.900;2023-02-18T11:17:29;98961.41;;;16.06;59.07
21433;BME280;18592;49.708;10.900;2023-02-18T11:19:38;98958.66;;;16.06;59.14
21433;BME280;18592;49.708;10.900;2023-02-18T11:21:40;98958.38;;;16.08;58.94
21433;BME280;18592;49.708;10.900;2023-02-18T11:23:47;98958.66;;;16.11;59.05
21433;BME280;18592;49.708;10.900;2023-02-18T11:26:02;98958.66;;;16.11;58.72